Indianapolis, Indiana
Traffic Map
Current Weather Conditions
Indianapolis, Indiana
Overcast Haze
Overcast
-3°
Feels Like: -3°
Wind Chill: -3° Ceiling: 1500
Heat Index: -3° Visibility: 6mi
Dew Point: -7° Wind: 3mph
Humidity: 78% Direction: 310° (NW)
Pressure: 30.26in Gusts: 0mph
Raw Report DataKIND 181654Z 31003KT 6SM BR OVC015 M03/M07 A3026 RMK AO2 SNB1558E09 SLP257 P0000 T10331067
Traffic Incident Summary
Active as of:
Severity:
Category:
InformationThere was an issue retrieving the traffic information for this location. Please try a different location or try again shortly.
Advertisements
Track Severe Weather on mobile